LOS ANGELES INTL

KLAX (LAX)
Los Angeles, California
Towered

Vatsim Metar:
KLAX 140453Z 23008KT 10SM CLR 17/14 A2991 RMK AO2 SLP125 T01720144

No ATC Online

Traffic

Inbound:
Ident
Type
Name
ETA
Phase
UAL2159
B738
1463763
Deplaning
737X
B738
Darwin Brooks KLGA
06:23 Z
Climb
QXE2228
E75L
Nathan KSEA
06:27 Z
Cruse
UAL511
A20N
Omar A Mohamed KPHX
07:13 Z
Cruse

Outbound:
Ident
Type
Name
Destination
Phase
AAL722
A20N
Joseph D. Rocco
KMRY
Climb